createdAt,value
2018-09-20T00:00:07.476Z,21.82
2018-09-20T00:00:33.609Z,21.79
2018-09-20T00:00:59.744Z,21.72
2018-09-20T00:01:25.878Z,21.8
2018-09-20T00:01:52.014Z,21.77
2018-09-20T00:02:18.166Z,21.79
2018-09-20T00:02:44.310Z,21.77
2018-09-20T00:03:10.480Z,21.82
2018-09-20T00:03:36.619Z,21.88
2018-09-20T00:04:02.751Z,21.89
2018-09-20T00:04:28.882Z,21.85
2018-09-20T00:04:55.018Z,21.79
2018-09-20T00:05:21.167Z,21.82
2018-09-20T00:05:47.297Z,21.85
2018-09-20T00:06:13.425Z,21.85
2018-09-20T00:06:39.596Z,21.8
2018-09-20T00:07:05.731Z,21.91
2018-09-20T00:07:31.859Z,21.95
2018-09-20T00:07:57.994Z,21.85
2018-09-20T00:08:24.146Z,21.98
2018-09-20T00:08:50.294Z,21.91
2018-09-20T00:09:16.430Z,21.93
2018-09-20T00:09:42.560Z,21.93
2018-09-20T00:10:08.739Z,21.85
2018-09-20T00:10:34.865Z,21.91
2018-09-20T00:11:01.000Z,21.83
2018-09-20T00:11:27.162Z,21.85
2018-09-20T00:11:53.296Z,21.82
2018-09-20T00:12:19.429Z,21.77
2018-09-20T00:12:45.564Z,21.85
2018-09-20T00:13:11.702Z,21.83
2018-09-20T00:13:37.864Z,21.66
2018-09-20T00:14:04.026Z,21.66
2018-09-20T00:14:30.177Z,21.72
2018-09-20T00:14:56.314Z,21.72
2018-09-20T00:15:22.465Z,21.73
2018-09-20T00:15:48.629Z,21.69
2018-09-20T00:16:14.763Z,21.75
2018-09-20T00:16:40.893Z,21.6
2018-09-20T00:17:07.033Z,21.48
2018-09-20T00:17:33.163Z,21.52
2018-09-20T00:17:59.294Z,21.5
2018-09-20T00:18:25.428Z,21.48
2018-09-20T00:18:51.556Z,21.6
2018-09-20T00:19:17.689Z,21.57
2018-09-20T00:19:43.826Z,21.62
2018-09-20T00:20:09.988Z,21.57
2018-09-20T00:20:36.125Z,21.54
2018-09-20T00:21:02.254Z,21.61
2018-09-20T00:21:28.438Z,21.6
2018-09-20T00:21:54.577Z,21.6
2018-09-20T00:22:20.735Z,21.64
2018-09-20T00:22:46.889Z,21.64
2018-09-20T00:23:13.077Z,21.72
2018-09-20T00:23:39.214Z,21.66
2018-09-20T00:24:05.462Z,21.7
2018-09-20T00:24:31.533Z,21.6
2018-09-20T00:24:57.667Z,21.62
2018-09-20T00:25:23.806Z,21.62
2018-09-20T00:25:49.931Z,21.61
2018-09-20T00:26:16.070Z,21.7
2018-09-20T00:26:42.197Z,21.69
2018-09-20T00:27:08.336Z,21.62
2018-09-20T00:27:34.492Z,21.72
2018-09-20T00:28:00.631Z,21.75
2018-09-20T00:28:26.790Z,21.69
2018-09-20T00:28:52.924Z,21.7
2018-09-20T00:29:19.088Z,21.73
2018-09-20T00:29:45.242Z,21.7
2018-09-20T00:30:11.374Z,21.66
2018-09-20T00:30:37.511Z,21.7
2018-09-20T00:31:03.643Z,21.7
2018-09-20T00:31:29.779Z,21.73
2018-09-20T00:31:55.910Z,21.7
2018-09-20T00:32:22.093Z,21.73
2018-09-20T00:32:48.250Z,21.72
2018-09-20T00:33:14.384Z,21.77
2018-09-20T00:33:40.544Z,21.77
2018-09-20T00:34:06.702Z,21.72
2018-09-20T00:34:32.837Z,21.61
2018-09-20T00:34:58.970Z,21.69
2018-09-20T00:35:25.101Z,21.6
2018-09-20T00:35:51.234Z,21.7
2018-09-20T00:36:17.364Z,21.73
2018-09-20T00:36:43.508Z,21.73
2018-09-20T00:37:09.640Z,21.69
2018-09-20T00:37:35.779Z,21.7
2018-09-20T00:38:01.933Z,21.66
2018-09-20T00:38:28.068Z,21.58
2018-09-20T00:38:54.204Z,21.57
2018-09-20T00:39:20.336Z,21.58
2018-09-20T00:39:46.490Z,21.64
2018-09-20T00:40:12.646Z,21.55
2018-09-20T00:40:38.784Z,21.62
2018-09-20T00:41:04.943Z,21.64
2018-09-20T00:41:31.074Z,21.7
2018-09-20T00:41:57.208Z,21.6
2018-09-20T00:42:23.343Z,21.55
2018-09-20T00:42:49.482Z,21.6
2018-09-20T00:43:15.617Z,21.62
2018-09-20T00:43:41.751Z,21.62
2018-09-20T00:44:07.889Z,21.6
2018-09-20T00:44:34.028Z,21.55
2018-09-20T00:45:00.164Z,21.64
2018-09-20T00:45:26.300Z,21.64
2018-09-20T00:45:52.433Z,21.62
2018-09-20T00:46:18.592Z,21.64
2018-09-20T00:46:44.752Z,21.6
2018-09-20T00:47:10.889Z,21.6
2018-09-20T00:47:37.023Z,21.58
2018-09-20T00:48:03.177Z,21.58
2018-09-20T00:48:29.317Z,21.64
2018-09-20T00:48:55.457Z,21.58
2018-09-20T00:49:21.643Z,21.66
2018-09-20T00:49:47.776Z,21.61
2018-09-20T00:50:13.931Z,21.5
2018-09-20T00:50:40.061Z,21.46
2018-09-20T00:51:06.196Z,21.6
2018-09-20T00:51:32.350Z,21.55
2018-09-20T00:51:58.484Z,21.58
2018-09-20T00:52:24.620Z,21.57
2018-09-20T00:52:50.756Z,21.55
2018-09-20T00:53:16.888Z,21.61
2018-09-20T00:53:43.022Z,21.64
2018-09-20T00:54:09.160Z,21.55
2018-09-20T00:54:35.296Z,21.55
2018-09-20T00:55:01.431Z,21.57
2018-09-20T00:55:27.563Z,21.5
2018-09-20T00:55:53.700Z,21.57
2018-09-20T00:56:19.836Z,21.57
2018-09-20T00:56:45.960Z,21.57
2018-09-20T00:57:12.101Z,21.52
2018-09-20T00:57:38.260Z,21.57
2018-09-20T00:58:04.390Z,21.58
2018-09-20T00:58:30.529Z,21.57
2018-09-20T00:58:56.663Z,21.57
2018-09-20T00:59:22.824Z,21.55
2018-09-20T00:59:48.952Z,21.57
2018-09-20T01:00:15.112Z,21.57
2018-09-20T01:00:41.273Z,21.67
2018-09-20T01:01:07.418Z,21.7
2018-09-20T01:01:33.555Z,21.69
2018-09-20T01:01:59.686Z,21.55
2018-09-20T01:02:25.826Z,21.58
2018-09-20T01:02:51.965Z,21.6
2018-09-20T01:03:18.096Z,21.6
2018-09-20T01:03:44.228Z,21.62
2018-09-20T01:04:10.364Z,21.57
2018-09-20T01:04:36.496Z,21.57
2018-09-20T01:05:02.657Z,21.54
2018-09-20T01:05:28.791Z,21.54
2018-09-20T01:05:54.928Z,21.61
2018-09-20T01:06:21.081Z,21.55
2018-09-20T01:06:47.222Z,21.54
2018-09-20T01:07:13.350Z,21.61
2018-09-20T01:07:39.491Z,21.58
2018-09-20T01:08:05.631Z,21.54
2018-09-20T01:08:31.767Z,21.6
2018-09-20T01:08:57.904Z,21.62
2018-09-20T01:09:24.028Z,21.62
2018-09-20T01:09:50.161Z,21.58
2018-09-20T01:10:16.327Z,21.67
2018-09-20T01:10:42.482Z,21.72
2018-09-20T01:11:08.633Z,21.69
2018-09-20T01:11:34.773Z,21.58
2018-09-20T01:12:00.907Z,21.62
2018-09-20T01:12:27.038Z,21.58
2018-09-20T01:12:53.176Z,21.57
2018-09-20T01:13:19.315Z,21.54
2018-09-20T01:13:45.448Z,21.48
2018-09-20T01:14:11.580Z,21.45
2018-09-20T01:14:37.717Z,21.39
2018-09-20T01:15:03.853Z,21.27
2018-09-20T01:15:29.983Z,21.37
2018-09-20T01:15:56.124Z,21.32
2018-09-20T01:16:22.280Z,21.27
2018-09-20T01:16:48.407Z,21.33
2018-09-20T01:17:14.551Z,21.32
2018-09-20T01:17:40.713Z,21.33
2018-09-20T01:18:06.863Z,21.39
2018-09-20T01:18:33.006Z,21.37
2018-09-20T01:18:59.135Z,21.27
2018-09-20T01:19:25.272Z,21.33
2018-09-20T01:19:51.405Z,21.29
2018-09-20T01:20:17.543Z,21.22
2018-09-20T01:20:43.676Z,21.36
2018-09-20T01:21:09.837Z,21.39
2018-09-20T01:21:35.966Z,21.46
2018-09-20T01:22:02.097Z,21.42
2018-09-20T01:22:28.230Z,21.42
2018-09-20T01:22:54.361Z,21.37
2018-09-20T01:23:20.524Z,21.32
2018-09-20T01:23:46.664Z,21.3
2018-09-20T01:24:12.795Z,21.24
2018-09-20T01:24:38.937Z,21.22
2018-09-20T01:25:05.091Z,21.22
2018-09-20T01:25:31.261Z,21.07
2018-09-20T01:25:57.399Z,21.24
2018-09-20T01:26:23.536Z,21.21
2018-09-20T01:26:49.668Z,21.11
2018-09-20T01:27:15.798Z,21.21
2018-09-20T01:27:41.937Z,21.24
2018-09-20T01:28:08.100Z,21.17
2018-09-20T01:28:34.259Z,21.21
2018-09-20T01:29:00.411Z,21.2
2018-09-20T01:29:26.556Z,21.12
2018-09-20T01:29:52.696Z,21.12
2018-09-20T01:30:18.854Z,21.11
2018-09-20T01:30:44.986Z,21.12
2018-09-20T01:31:11.125Z,21.07
2018-09-20T01:31:37.261Z,21.06
2018-09-20T01:32:03.420Z,21.12
2018-09-20T01:32:29.576Z,21.14
2018-09-20T01:32:55.709Z,21.06
2018-09-20T01:33:21.871Z,21.11
2018-09-20T01:33:48.009Z,21.09
2018-09-20T01:34:14.147Z,21.12
2018-09-20T01:34:40.306Z,21.05
2018-09-20T01:35:06.432Z,21.14
2018-09-20T01:35:32.594Z,21.06
2018-09-20T01:35:58.746Z,21.06
2018-09-20T01:36:24.907Z,21.06
2018-09-20T01:36:51.043Z,21.03
2018-09-20T01:37:17.173Z,21.03
2018-09-20T01:37:43.322Z,20.92
2018-09-20T01:38:09.463Z,21.02
2018-09-20T01:38:35.595Z,20.95
2018-09-20T01:39:01.738Z,21
2018-09-20T01:39:27.873Z,21.03
2018-09-20T01:39:54.030Z,21.11
2018-09-20T01:40:20.185Z,21.11
2018-09-20T01:40:46.318Z,21.05
2018-09-20T01:41:12.482Z,21.09
2018-09-20T01:41:38.611Z,21.05
2018-09-20T01:42:04.748Z,21.07
2018-09-20T01:42:30.887Z,21.11
2018-09-20T01:42:57.068Z,21.12
2018-09-20T01:43:23.204Z,21.05
2018-09-20T01:43:49.387Z,20.95
2018-09-20T01:44:15.518Z,21.03
2018-09-20T01:44:41.649Z,21.09
2018-09-20T01:45:07.785Z,21.05
2018-09-20T01:45:33.937Z,21.03
2018-09-20T01:46:00.073Z,21.12
2018-09-20T01:46:26.215Z,21.07
2018-09-20T01:46:52.351Z,21.09
2018-09-20T01:47:18.485Z,21.05
2018-09-20T01:47:44.617Z,21.05
2018-09-20T01:48:10.754Z,21.12
2018-09-20T01:48:36.889Z,21.05
2018-09-20T01:49:03.017Z,20.95
2018-09-20T01:49:29.155Z,21.09
2018-09-20T01:49:55.292Z,21.11
2018-09-20T01:50:21.426Z,21.12
2018-09-20T01:50:47.559Z,21.06
2018-09-20T01:51:13.694Z,20.9
2018-09-20T01:51:39.829Z,20.97
2018-09-20T01:52:05.968Z,21
2018-09-20T01:52:32.099Z,20.95
2018-09-20T01:52:58.256Z,20.95
2018-09-20T01:53:24.415Z,20.93
2018-09-20T01:53:50.549Z,20.95
2018-09-20T01:54:16.687Z,20.93
2018-09-20T01:54:42.819Z,20.87
2018-09-20T01:55:08.959Z,20.96
2018-09-20T01:55:35.087Z,20.9
2018-09-20T01:56:01.246Z,20.87
2018-09-20T01:56:27.395Z,20.9
2018-09-20T01:56:53.552Z,20.95
2018-09-20T01:57:19.688Z,20.87
2018-09-20T01:57:45.826Z,20.96
2018-09-20T01:58:11.962Z,20.95
2018-09-20T01:58:38.117Z,20.97
2018-09-20T01:59:04.256Z,20.95
2018-09-20T01:59:30.384Z,20.96
2018-09-20T01:59:56.528Z,21.06
2018-09-20T02:00:22.657Z,21.07
2018-09-20T02:00:48.797Z,21.02
2018-09-20T02:01:14.955Z,20.96
2018-09-20T02:01:41.118Z,20.95
2018-09-20T02:02:07.261Z,20.85
2018-09-20T02:02:33.407Z,20.82
2018-09-20T02:02:59.581Z,20.72
2018-09-20T02:03:25.742Z,20.78
2018-09-20T02:03:51.898Z,20.75
2018-09-20T02:04:18.038Z,20.78
2018-09-20T02:04:44.180Z,20.75
2018-09-20T02:05:10.311Z,20.81
2018-09-20T02:05:36.465Z,20.72
2018-09-20T02:06:02.621Z,20.69
2018-09-20T02:06:28.761Z,20.63
2018-09-20T02:06:54.893Z,20.56
2018-09-20T02:07:21.029Z,20.65
2018-09-20T02:07:47.184Z,20.67
2018-09-20T02:08:13.339Z,20.78
2018-09-20T02:08:39.499Z,20.74
2018-09-20T02:09:05.660Z,20.8
2018-09-20T02:09:31.799Z,20.7
2018-09-20T02:09:57.929Z,20.74
2018-09-20T02:10:24.094Z,20.78
2018-09-20T02:10:50.284Z,20.78
2018-09-20T02:11:16.417Z,20.81
2018-09-20T02:11:42.566Z,20.82
2018-09-20T02:12:08.702Z,20.8
2018-09-20T02:12:34.834Z,20.75
2018-09-20T02:13:00.963Z,20.78
2018-09-20T02:13:27.101Z,20.75
2018-09-20T02:13:53.244Z,20.69
2018-09-20T02:14:19.373Z,20.7
2018-09-20T02:14:45.533Z,20.74
2018-09-20T02:15:11.660Z,20.66
2018-09-20T02:15:37.828Z,20.8
2018-09-20T02:16:03.964Z,20.75
2018-09-20T02:16:30.095Z,20.66
2018-09-20T02:16:56.227Z,20.6
2018-09-20T02:17:22.360Z,20.66
2018-09-20T02:17:48.495Z,20.56
2018-09-20T02:18:14.628Z,20.55
2018-09-20T02:18:40.769Z,20.62
2018-09-20T02:19:06.901Z,20.65
2018-09-20T02:19:33.036Z,20.62
2018-09-20T02:19:59.167Z,20.56
2018-09-20T02:20:25.289Z,20.6
2018-09-20T02:20:51.444Z,20.56
2018-09-20T02:21:17.590Z,20.59
2018-09-20T02:21:43.741Z,20.7
2018-09-20T02:22:09.882Z,20.56
2018-09-20T02:22:36.016Z,20.65
2018-09-20T02:23:02.153Z,20.65
2018-09-20T02:23:28.316Z,20.65
2018-09-20T02:23:54.448Z,20.58
2018-09-20T02:24:20.581Z,20.62
2018-09-20T02:24:46.713Z,20.56
2018-09-20T02:25:12.849Z,20.65
2018-09-20T02:25:38.985Z,20.66
2018-09-20T02:26:05.114Z,20.67
2018-09-20T02:26:31.299Z,20.66
2018-09-20T02:26:57.427Z,20.62
2018-09-20T02:27:23.576Z,20.66
2018-09-20T02:27:49.704Z,20.62
2018-09-20T02:28:15.840Z,20.69
2018-09-20T02:28:41.978Z,20.62
2018-09-20T02:29:08.113Z,20.58
2018-09-20T02:29:34.250Z,20.59
2018-09-20T02:30:00.387Z,20.56
2018-09-20T02:30:26.514Z,20.58
2018-09-20T02:30:52.694Z,20.6
2018-09-20T02:31:18.832Z,20.55
2018-09-20T02:31:45.003Z,20.55
2018-09-20T02:32:11.138Z,20.59
2018-09-20T02:32:37.299Z,20.44
2018-09-20T02:33:03.463Z,20.51
2018-09-20T02:33:29.646Z,20.5
2018-09-20T02:33:55.807Z,20.47
2018-09-20T02:34:21.967Z,20.44
2018-09-20T02:34:48.103Z,20.41
2018-09-20T02:35:14.258Z,20.44
2018-09-20T02:35:40.396Z,20.5
2018-09-20T02:36:06.529Z,20.41
2018-09-20T02:36:32.661Z,20.48
2018-09-20T02:36:58.797Z,20.5
2018-09-20T02:37:24.957Z,20.44
2018-09-20T02:37:51.091Z,20.5
2018-09-20T02:38:17.266Z,20.47
2018-09-20T02:38:43.405Z,20.4
2018-09-20T02:39:09.538Z,20.48
2018-09-20T02:39:35.672Z,20.4
2018-09-20T02:40:01.856Z,20.36
2018-09-20T02:40:28.015Z,20.4
2018-09-20T02:40:54.169Z,20.39
2018-09-20T02:41:20.304Z,20.4
2018-09-20T02:41:46.459Z,20.44
2018-09-20T02:42:12.614Z,20.47
2018-09-20T02:42:38.750Z,20.43
2018-09-20T02:43:04.907Z,20.39
2018-09-20T02:43:31.042Z,20.44
2018-09-20T02:43:57.192Z,20.36
2018-09-20T02:44:23.335Z,20.44
2018-09-20T02:44:49.469Z,20.41
2018-09-20T02:45:15.604Z,20.24
2018-09-20T02:45:41.737Z,20.32
2018-09-20T02:46:07.897Z,20.31
2018-09-20T02:46:34.039Z,20.26
2018-09-20T02:47:00.192Z,20.24
2018-09-20T02:47:26.350Z,20.31
2018-09-20T02:47:52.528Z,20.29
2018-09-20T02:48:18.714Z,20.34
2018-09-20T02:48:44.869Z,20.34
2018-09-20T02:49:11.003Z,20.26
2018-09-20T02:49:37.135Z,20.47
2018-09-20T02:50:03.303Z,20.4
2018-09-20T02:50:29.479Z,20.37
2018-09-20T02:50:55.616Z,20.37
2018-09-20T02:51:21.799Z,20.44
2018-09-20T02:51:48.010Z,20.4
2018-09-20T02:52:14.186Z,20.47
2018-09-20T02:52:40.341Z,20.41
2018-09-20T02:53:06.476Z,20.44
2018-09-20T02:53:32.629Z,20.39
2018-09-20T02:53:58.766Z,20.43
2018-09-20T02:54:24.908Z,20.39
2018-09-20T02:54:51.044Z,20.29
2018-09-20T02:55:17.225Z,20.47
2018-09-20T02:55:43.430Z,20.48
2018-09-20T02:56:09.600Z,20.43
2018-09-20T02:56:35.733Z,20.44
2018-09-20T02:57:01.864Z,20.43
2018-09-20T02:57:28.027Z,20.31
2018-09-20T02:57:54.171Z,20.34
2018-09-20T02:58:20.309Z,20.26
2018-09-20T02:58:46.482Z,20.36
2018-09-20T02:59:12.603Z,20.43
2018-09-20T02:59:38.779Z,20.43
2018-09-20T03:00:04.927Z,20.4
2018-09-20T03:00:31.101Z,20.41
2018-09-20T03:00:57.259Z,20.47
2018-09-20T03:01:23.446Z,20.32
2018-09-20T03:01:49.578Z,20.31
2018-09-20T03:02:15.735Z,20.31
2018-09-20T03:02:41.900Z,20.32
2018-09-20T03:03:08.042Z,20.22
2018-09-20T03:03:34.179Z,20.28
2018-09-20T03:04:00.338Z,20.22
2018-09-20T03:04:26.473Z,20.28
2018-09-20T03:04:52.609Z,20.29
2018-09-20T03:05:18.738Z,20.29
2018-09-20T03:05:44.876Z,20.36
2018-09-20T03:06:11.058Z,20.43
2018-09-20T03:06:37.234Z,20.25
2018-09-20T03:07:03.395Z,20.34
2018-09-20T03:07:29.557Z,20.32
2018-09-20T03:07:55.715Z,20.36
2018-09-20T03:08:21.850Z,20.36
2018-09-20T03:08:48.007Z,20.41
2018-09-20T03:09:14.196Z,20.32
2018-09-20T03:09:40.329Z,20.26
2018-09-20T03:10:06.456Z,20.29
2018-09-20T03:10:32.616Z,20.29
2018-09-20T03:10:58.756Z,20.26
2018-09-20T03:11:24.912Z,20.25
2018-09-20T03:11:51.073Z,20.18
2018-09-20T03:12:17.199Z,20.19
2018-09-20T03:12:43.363Z,20.25
2018-09-20T03:13:09.521Z,20.31
2018-09-20T03:13:35.656Z,20.28
2018-09-20T03:14:01.838Z,20.26
2018-09-20T03:14:27.967Z,20.44
2018-09-20T03:14:54.104Z,20.43
2018-09-20T03:15:20.240Z,20.4
2018-09-20T03:15:46.393Z,20.43
2018-09-20T03:16:12.548Z,20.47
2018-09-20T03:16:38.682Z,20.41
2018-09-20T03:17:04.826Z,20.39
2018-09-20T03:17:30.982Z,20.44
2018-09-20T03:17:57.128Z,20.48
2018-09-20T03:18:23.264Z,20.31
2018-09-20T03:18:49.445Z,20.43
2018-09-20T03:19:15.586Z,20.41
2018-09-20T03:19:41.773Z,20.4
2018-09-20T03:20:07.953Z,20.4
2018-09-20T03:20:34.135Z,20.48
2018-09-20T03:21:00.299Z,20.48
2018-09-20T03:21:26.461Z,20.48
2018-09-20T03:21:52.618Z,20.44
2018-09-20T03:22:18.769Z,20.34
2018-09-20T03:22:44.928Z,20.29
2018-09-20T03:23:11.092Z,20.32
2018-09-20T03:23:37.221Z,20.26
2018-09-20T03:24:03.386Z,20.36
2018-09-20T03:24:29.535Z,20.34
2018-09-20T03:24:55.665Z,20.34
2018-09-20T03:25:21.848Z,20.32
2018-09-20T03:25:48.056Z,20.37
2018-09-20T03:26:14.214Z,20.26
2018-09-20T03:26:40.365Z,20.34
2018-09-20T03:27:06.535Z,20.31
2018-09-20T03:27:32.671Z,20.32
2018-09-20T03:27:58.811Z,20.34
2018-09-20T03:28:24.986Z,20.22
2018-09-20T03:28:51.120Z,20.26
2018-09-20T03:29:17.280Z,20.31
2018-09-20T03:29:43.413Z,20.29
2018-09-20T03:30:09.556Z,20.31
2018-09-20T03:30:35.818Z,20.28
2018-09-20T03:31:01.834Z,20.25
2018-09-20T03:31:27.993Z,20.24
2018-09-20T03:31:54.226Z,20.22
2018-09-20T03:32:20.283Z,20.26
2018-09-20T03:32:46.442Z,20.28
2018-09-20T03:33:12.596Z,20.28
2018-09-20T03:33:38.735Z,20.32
2018-09-20T03:34:04.913Z,20.36
2018-09-20T03:34:31.089Z,20.29
2018-09-20T03:34:57.268Z,20.39
2018-09-20T03:35:23.495Z,20.36
2018-09-20T03:35:49.657Z,20.4
2018-09-20T03:36:15.798Z,20.44
2018-09-20T03:36:41.957Z,20.43
2018-09-20T03:37:08.087Z,20.32
2018-09-20T03:37:34.254Z,20.43
2018-09-20T03:38:00.390Z,20.41
2018-09-20T03:38:26.570Z,20.41
2018-09-20T03:38:52.701Z,20.36
2018-09-20T03:39:18.833Z,20.44
2018-09-20T03:39:44.984Z,20.44
2018-09-20T03:40:11.158Z,20.4
2018-09-20T03:40:37.312Z,20.5
2018-09-20T03:41:03.491Z,20.44
2018-09-20T03:41:29.621Z,20.43
2018-09-20T03:41:55.761Z,20.51
2018-09-20T03:42:21.901Z,20.47
2018-09-20T03:42:48.059Z,20.34
2018-09-20T03:43:14.222Z,20.43
2018-09-20T03:43:40.385Z,20.44
2018-09-20T03:44:06.551Z,20.4
2018-09-20T03:44:32.710Z,20.43
2018-09-20T03:44:58.863Z,20.43
2018-09-20T03:45:25.041Z,20.41
2018-09-20T03:45:51.187Z,20.48
2018-09-20T03:46:17.349Z,20.4
2018-09-20T03:46:43.484Z,20.41
2018-09-20T03:47:09.669Z,20.28
2018-09-20T03:47:35.854Z,20.34
2018-09-20T03:48:02.011Z,20.32
2018-09-20T03:48:28.161Z,20.31
2018-09-20T03:48:54.348Z,20.28
2018-09-20T03:49:20.549Z,20.25
2018-09-20T03:49:46.687Z,20.18
2018-09-20T03:50:12.815Z,20.25
2018-09-20T03:50:38.999Z,20.19
2018-09-20T03:51:05.087Z,20.21
2018-09-20T03:51:31.216Z,20.24
2018-09-20T03:51:57.406Z,20.19
2018-09-20T03:52:23.561Z,20.24
2018-09-20T03:52:49.712Z,20.21
2018-09-20T03:53:15.843Z,20.22
2018-09-20T03:53:42.007Z,20.25
2018-09-20T03:54:08.184Z,20.1
2018-09-20T03:54:34.353Z,20.1
2018-09-20T03:55:00.510Z,20.18
2018-09-20T03:55:26.707Z,20.14
2018-09-20T03:55:52.841Z,20.06
2018-09-20T03:56:18.998Z,20.11
2018-09-20T03:56:45.130Z,20.14
2018-09-20T03:57:11.321Z,20.14
2018-09-20T03:57:37.479Z,20.16
2018-09-20T03:58:03.640Z,20.1
2018-09-20T03:58:29.851Z,20.11
2018-09-20T03:58:55.987Z,19.92
2018-09-20T03:59:22.126Z,19.92
2018-09-20T03:59:48.276Z,19.91
2018-09-20T04:00:14.432Z,20.02
2018-09-20T04:00:40.587Z,19.99
2018-09-20T04:01:06.749Z,19.94
2018-09-20T04:01:32.888Z,20
2018-09-20T04:01:59.048Z,19.99
2018-09-20T04:02:25.198Z,20.06
2018-09-20T04:02:51.337Z,19.91
2018-09-20T04:03:17.470Z,20.09
2018-09-20T04:03:43.629Z,20.04
2018-09-20T04:04:09.754Z,20.03
2018-09-20T04:04:35.914Z,20.04
2018-09-20T04:05:02.095Z,20.04
2018-09-20T04:05:28.302Z,19.99
2018-09-20T04:05:54.443Z,20.03
2018-09-20T04:06:20.598Z,20.02
2018-09-20T04:06:46.733Z,19.89
2018-09-20T04:07:12.866Z,19.91
2018-09-20T04:07:39.028Z,19.92
2018-09-20T04:08:05.162Z,19.88
2018-09-20T04:08:31.319Z,19.85
2018-09-20T04:08:57.500Z,19.84
2018-09-20T04:09:23.635Z,19.84
2018-09-20T04:09:49.896Z,19.84
2018-09-20T04:10:15.908Z,19.77
2018-09-20T04:10:42.040Z,19.81
2018-09-20T04:11:08.197Z,19.84
2018-09-20T04:11:34.359Z,19.84
2018-09-20T04:12:00.492Z,19.84
2018-09-20T04:12:26.638Z,19.82
2018-09-20T04:12:52.793Z,19.94
2018-09-20T04:13:18.951Z,19.81
2018-09-20T04:13:45.100Z,19.95
2018-09-20T04:14:11.262Z,19.95
2018-09-20T04:14:37.425Z,19.94
2018-09-20T04:15:03.575Z,19.95
2018-09-20T04:15:29.760Z,19.86
2018-09-20T04:15:55.937Z,19.85
2018-09-20T04:16:22.176Z,19.81
2018-09-20T04:16:48.349Z,19.77
2018-09-20T04:17:14.499Z,19.85
2018-09-20T04:17:40.661Z,19.79
2018-09-20T04:18:06.845Z,19.81
2018-09-20T04:18:33.019Z,19.69
2018-09-20T04:18:59.176Z,19.79
2018-09-20T04:19:25.357Z,19.81
2018-09-20T04:19:51.505Z,19.84
2018-09-20T04:20:17.672Z,19.85
2018-09-20T04:20:43.801Z,19.81
2018-09-20T04:21:10.008Z,19.85
2018-09-20T04:21:36.146Z,19.84
2018-09-20T04:22:02.276Z,19.84
2018-09-20T04:22:28.437Z,19.76
2018-09-20T04:22:54.571Z,19.82
2018-09-20T04:23:20.706Z,19.69
2018-09-20T04:23:46.845Z,19.82
2018-09-20T04:24:12.974Z,19.77
2018-09-20T04:24:39.127Z,19.81
2018-09-20T04:25:05.259Z,19.81
2018-09-20T04:25:31.408Z,19.84
2018-09-20T04:25:57.590Z,19.82
2018-09-20T04:26:23.721Z,19.81
2018-09-20T04:26:49.854Z,19.66
2018-09-20T04:27:16.010Z,19.73
2018-09-20T04:27:42.138Z,19.85
2018-09-20T04:28:08.300Z,19.82
2018-09-20T04:28:34.443Z,19.84
2018-09-20T04:29:00.573Z,19.82
2018-09-20T04:29:26.705Z,19.84
2018-09-20T04:29:52.863Z,19.88
2018-09-20T04:30:19.035Z,19.91
2018-09-20T04:30:45.170Z,19.94
2018-09-20T04:31:11.303Z,19.95
2018-09-20T04:31:37.472Z,19.92
2018-09-20T04:32:03.619Z,19.92
2018-09-20T04:32:29.796Z,19.86
2018-09-20T04:32:55.958Z,19.89
2018-09-20T04:33:22.113Z,19.85
2018-09-20T04:33:48.264Z,19.95
2018-09-20T04:34:14.419Z,20.02
2018-09-20T04:34:40.577Z,20.02
2018-09-20T04:35:06.734Z,19.94
2018-09-20T04:35:32.891Z,19.96
2018-09-20T04:35:59.027Z,19.79
2018-09-20T04:36:25.187Z,19.94
2018-09-20T04:36:51.330Z,19.99
2018-09-20T04:37:17.489Z,20
2018-09-20T04:37:43.630Z,19.94
2018-09-20T04:38:09.760Z,19.94
2018-09-20T04:38:35.916Z,19.95
2018-09-20T04:39:02.050Z,19.96
2018-09-20T04:39:28.214Z,19.94
2018-09-20T04:39:54.376Z,19.95
2018-09-20T04:40:20.510Z,19.99
2018-09-20T04:40:46.662Z,20.02
2018-09-20T04:41:12.820Z,20.03
2018-09-20T04:41:38.952Z,20.03
2018-09-20T04:42:05.092Z,19.99
2018-09-20T04:42:31.251Z,19.94
2018-09-20T04:42:57.386Z,20
2018-09-20T04:43:23.545Z,19.94
2018-09-20T04:43:49.730Z,19.94
2018-09-20T04:44:15.859Z,19.96
2018-09-20T04:44:42.024Z,19.94
2018-09-20T04:45:08.177Z,19.99
2018-09-20T04:45:34.311Z,19.96
2018-09-20T04:46:00.447Z,20.07
2018-09-20T04:46:26.581Z,19.96
2018-09-20T04:46:52.742Z,20.03
2018-09-20T04:47:18.871Z,20.06
2018-09-20T04:47:45.003Z,19.89
2018-09-20T04:48:11.139Z,19.82
2018-09-20T04:48:37.276Z,19.84
2018-09-20T04:49:03.409Z,19.81
2018-09-20T04:49:29.597Z,19.88
2018-09-20T04:49:55.728Z,19.95
2018-09-20T04:50:21.871Z,19.89
2018-09-20T04:50:48.005Z,19.94
2018-09-20T04:51:14.138Z,19.89
2018-09-20T04:51:40.273Z,19.74
2018-09-20T04:52:06.410Z,19.79
2018-09-20T04:52:32.543Z,19.79
2018-09-20T04:52:58.703Z,19.76
2018-09-20T04:53:24.921Z,19.86
2018-09-20T04:53:50.995Z,19.92
2018-09-20T04:54:17.132Z,19.92
2018-09-20T04:54:43.269Z,19.99
2018-09-20T04:55:09.423Z,19.88
2018-09-20T04:55:35.580Z,19.92
2018-09-20T04:56:01.717Z,19.92
2018-09-20T04:56:27.854Z,19.92
2018-09-20T04:56:53.986Z,19.95
2018-09-20T04:57:20.119Z,19.91
2018-09-20T04:57:46.255Z,19.76
2018-09-20T04:58:12.413Z,19.85
2018-09-20T04:58:38.555Z,19.84
2018-09-20T04:59:04.687Z,19.84
2018-09-20T04:59:30.838Z,19.88
2018-09-20T04:59:57.029Z,19.82
2018-09-20T05:00:23.193Z,19.77
2018-09-20T05:00:49.351Z,19.89
2018-09-20T05:01:15.486Z,19.82
2018-09-20T05:01:41.658Z,19.84
2018-09-20T05:02:07.800Z,19.79
2018-09-20T05:02:33.938Z,19.77
2018-09-20T05:03:00.068Z,19.82
2018-09-20T05:03:26.230Z,19.84
2018-09-20T05:03:52.391Z,19.81
2018-09-20T05:04:18.526Z,19.82
2018-09-20T05:04:44.685Z,19.76
2018-09-20T05:05:10.830Z,19.84
2018-09-20T05:05:36.966Z,19.85
2018-09-20T05:06:03.090Z,19.91
2018-09-20T05:06:29.230Z,19.79
2018-09-20T05:06:55.365Z,19.82
2018-09-20T05:07:21.520Z,19.84
2018-09-20T05:07:47.655Z,19.89
2018-09-20T05:08:13.790Z,19.92
2018-09-20T05:08:39.944Z,19.81
2018-09-20T05:09:06.085Z,19.84
2018-09-20T05:09:32.268Z,19.79
2018-09-20T05:09:58.379Z,19.82
2018-09-20T05:10:24.519Z,19.84
2018-09-20T05:10:50.656Z,19.79
2018-09-20T05:11:16.815Z,19.82
2018-09-20T05:11:42.953Z,19.82
2018-09-20T05:12:09.085Z,19.79
2018-09-20T05:12:35.221Z,19.84
2018-09-20T05:13:01.382Z,19.86
2018-09-20T05:13:27.532Z,19.77
2018-09-20T05:13:53.687Z,19.86
2018-09-20T05:14:19.827Z,19.84
2018-09-20T05:14:45.963Z,19.86
2018-09-20T05:15:12.092Z,19.81
2018-09-20T05:15:38.254Z,19.84
2018-09-20T05:16:04.396Z,19.81
2018-09-20T05:16:30.530Z,19.67
2018-09-20T05:16:56.665Z,19.66
2018-09-20T05:17:22.803Z,19.7
2018-09-20T05:17:48.962Z,19.71
2018-09-20T05:18:15.090Z,19.7
2018-09-20T05:18:41.223Z,19.7
2018-09-20T05:19:07.360Z,19.63
2018-09-20T05:19:33.507Z,19.69
2018-09-20T05:19:59.650Z,19.63
2018-09-20T05:20:25.814Z,19.62
2018-09-20T05:20:51.989Z,19.66
2018-09-20T05:21:18.130Z,19.69
2018-09-20T05:21:44.305Z,19.81
2018-09-20T05:22:10.440Z,19.69
2018-09-20T05:22:36.576Z,19.73
2018-09-20T05:23:02.730Z,19.82
2018-09-20T05:23:28.923Z,19.82
2018-09-20T05:23:55.000Z,19.79
2018-09-20T05:24:21.132Z,19.79
2018-09-20T05:24:47.262Z,19.84
2018-09-20T05:25:13.402Z,19.77
2018-09-20T05:25:39.532Z,19.84
2018-09-20T05:26:05.694Z,19.82
2018-09-20T05:26:31.828Z,19.85
2018-09-20T05:26:57.987Z,19.86
2018-09-20T05:27:24.123Z,19.81
2018-09-20T05:27:50.264Z,19.82
2018-09-20T05:28:16.396Z,19.81
2018-09-20T05:28:42.531Z,19.71
2018-09-20T05:29:08.669Z,19.76
2018-09-20T05:29:34.805Z,19.76
2018-09-20T05:30:00.941Z,19.67
2018-09-20T05:30:27.068Z,19.66
2018-09-20T05:30:53.205Z,19.7
2018-09-20T05:31:19.344Z,19.69
2018-09-20T05:31:45.474Z,19.71
2018-09-20T05:32:11.606Z,19.63
2018-09-20T05:32:37.746Z,19.67
2018-09-20T05:33:03.878Z,19.69
2018-09-20T05:33:30.014Z,19.77
2018-09-20T05:33:56.172Z,19.76
2018-09-20T05:34:22.308Z,19.73
2018-09-20T05:34:48.443Z,19.76
2018-09-20T05:35:14.581Z,19.77
2018-09-20T05:35:40.777Z,19.77
2018-09-20T05:36:06.911Z,19.96
2018-09-20T05:36:33.050Z,19.95
2018-09-20T05:36:59.182Z,19.91
2018-09-20T05:37:25.332Z,19.84
2018-09-20T05:37:51.468Z,19.91